createdAt,value
2022-09-21T00:01:05.393Z,55.26
2022-09-21T00:03:32.939Z,55.22
2022-09-21T00:06:06.972Z,54.70
2022-09-21T00:08:34.618Z,55.81
2022-09-21T00:11:02.188Z,56.32
2022-09-21T00:13:29.844Z,55.90
2022-09-21T00:15:57.372Z,55.73
2022-09-21T00:18:25.003Z,55.19
2022-09-21T00:20:55.202Z,55.42
2022-09-21T00:23:23.834Z,55.54
2022-09-21T00:25:51.116Z,55.42
2022-09-21T00:28:18.300Z,55.08
2022-09-21T00:30:45.908Z,55.85
2022-09-21T00:33:13.148Z,54.99
2022-09-21T00:35:41.337Z,55.51
2022-09-21T00:38:08.776Z,55.38
2022-09-21T00:40:36.458Z,55.22
2022-09-21T00:43:13.778Z,55.44
2022-09-21T00:45:41.346Z,55.55
2022-09-21T00:48:08.576Z,55.37
2022-09-21T00:50:36.151Z,54.70
2022-09-21T00:53:03.720Z,54.67
2022-09-21T00:55:34.238Z,54.21
2022-09-21T00:58:03.487Z,55.12
2022-09-21T01:00:30.967Z,54.46
2022-09-21T01:03:01.444Z,54.11
2022-09-21T01:05:29.053Z,54.11
2022-09-21T01:07:57.297Z,54.22
2022-09-21T01:10:25.897Z,53.70
2022-09-21T01:13:14.143Z,54.52
2022-09-21T01:16:20.506Z,55.48
2022-09-21T01:18:51.795Z,54.99
2022-09-21T01:21:20.348Z,54.04
2022-09-21T01:24:02.937Z,53.58
2022-09-21T01:26:36.394Z,54.34
2022-09-21T01:29:17.069Z,54.19
2022-09-21T01:31:55.240Z,54.13
2022-09-21T01:34:34.483Z,54.96
2022-09-21T01:37:03.473Z,54.32
2022-09-21T01:39:30.674Z,54.32
2022-09-21T01:41:57.845Z,54.24
2022-09-21T01:44:27.287Z,55.68
2022-09-21T01:46:54.588Z,56.73
2022-09-21T01:49:23.279Z,55.22
2022-09-21T01:51:52.084Z,54.96
2022-09-21T01:54:22.098Z,54.40
2022-09-21T01:57:09.527Z,53.80
2022-09-21T01:59:37.217Z,54.80
2022-09-21T02:02:15.515Z,54.59
2022-09-21T02:04:43.024Z,54.16
2022-09-21T02:07:10.228Z,54.79
2022-09-21T02:09:37.494Z,53.80
2022-09-21T02:12:05.575Z,53.30
2022-09-21T02:14:33.480Z,53.51
2022-09-21T02:17:07.475Z,53.30
2022-09-21T02:19:56.729Z,53.25
2022-09-21T02:22:32.047Z,54.32
2022-09-21T02:25:05.560Z,55.10
2022-09-21T02:27:46.023Z,55.24
2022-09-21T02:30:14.656Z,54.24
2022-09-21T02:32:49.152Z,54.88
2022-09-21T02:35:32.000Z,54.71
2022-09-21T02:38:03.697Z,54.34
2022-09-21T02:40:31.441Z,54.04
2022-09-21T02:42:59.773Z,54.12
2022-09-21T02:45:27.948Z,55.79
2022-09-21T02:48:03.647Z,55.29
2022-09-21T02:50:57.122Z,54.50
2022-09-21T02:53:25.980Z,55.25
2022-09-21T02:55:56.471Z,55.57
2022-09-21T02:58:24.646Z,54.04
2022-09-21T03:00:52.103Z,56.07
2022-09-21T03:03:20.662Z,55.72
2022-09-21T03:05:48.699Z,56.31
2022-09-21T03:08:16.583Z,54.98
2022-09-21T03:10:43.841Z,54.48
2022-09-21T03:13:11.101Z,55.37
2022-09-21T03:15:39.171Z,55.93
2022-09-21T03:18:07.900Z,56.79
2022-09-21T03:20:35.734Z,57.07
2022-09-21T03:23:03.227Z,55.79
2022-09-21T03:25:31.011Z,55.41
2022-09-21T03:27:58.576Z,55.53
2022-09-21T03:30:26.556Z,55.64
2022-09-21T03:32:53.758Z,54.33
2022-09-21T03:35:21.805Z,54.86
2022-09-21T03:37:49.593Z,53.82
2022-09-21T03:40:17.170Z,53.41
2022-09-21T03:42:44.378Z,53.65
2022-09-21T03:45:12.112Z,53.20
2022-09-21T03:47:39.503Z,52.90
2022-09-21T03:50:10.028Z,53.10
2022-09-21T03:52:38.537Z,52.93
2022-09-21T03:55:06.653Z,53.26
2022-09-21T03:57:34.480Z,52.60
2022-09-21T04:00:04.025Z,53.05
2022-09-21T04:02:32.125Z,52.85
2022-09-21T04:05:00.112Z,52.10
2022-09-21T04:07:30.224Z,52.74
2022-09-21T04:09:57.407Z,52.34
2022-09-21T04:12:24.848Z,52.61
2022-09-21T04:14:52.125Z,53.37
2022-09-21T04:17:19.392Z,52.73
2022-09-21T04:19:47.866Z,52.67
2022-09-21T04:22:15.056Z,52.36
2022-09-21T04:24:42.285Z,52.82
2022-09-21T04:27:10.137Z,53.92
2022-09-21T04:29:37.639Z,53.47
2022-09-21T04:32:05.139Z,54.62
2022-09-21T04:34:32.657Z,54.93
2022-09-21T04:36:59.946Z,54.42
2022-09-21T04:39:27.098Z,56.14
2022-09-21T04:41:54.675Z,56.07
2022-09-21T04:44:22.064Z,55.26
2022-09-21T04:46:49.237Z,55.87
2022-09-21T04:49:16.700Z,56.00
2022-09-21T04:51:43.917Z,56.58
2022-09-21T04:54:11.107Z,56.97
2022-09-21T04:56:38.559Z,57.22
2022-09-21T04:59:05.825Z,57.12
2022-09-21T05:01:33.093Z,56.93
2022-09-21T05:04:02.525Z,59.11
2022-09-21T05:06:30.263Z,59.58
2022-09-21T05:09:16.063Z,57.54
2022-09-21T05:11:43.596Z,56.66
2022-09-21T05:14:11.047Z,56.55
2022-09-21T05:16:38.422Z,58.73
2022-09-21T05:19:06.051Z,58.97
2022-09-21T05:21:33.381Z,59.23
2022-09-21T05:24:00.666Z,60.06
2022-09-21T05:26:28.209Z,59.75
2022-09-21T05:28:55.646Z,59.00
2022-09-21T05:31:37.673Z,58.70
2022-09-21T05:34:17.600Z,57.76
2022-09-21T05:36:47.934Z,58.32
2022-09-21T05:39:15.528Z,59.05
2022-09-21T05:41:42.882Z,58.38
2022-09-21T05:44:14.350Z,59.87
2022-09-21T05:46:42.905Z,59.90
2022-09-21T05:49:15.018Z,59.79
2022-09-21T05:51:51.633Z,58.86
2022-09-21T05:54:21.021Z,59.02
2022-09-21T05:56:53.939Z,59.45
2022-09-21T05:59:33.277Z,58.57
2022-09-21T06:02:04.911Z,59.87
2022-09-21T06:04:32.580Z,59.21
2022-09-21T06:06:59.806Z,60.66
2022-09-21T06:09:27.956Z,58.50
2022-09-21T06:11:55.448Z,59.88
2022-09-21T06:14:25.656Z,59.07
2022-09-21T06:16:53.027Z,59.59
2022-09-21T06:19:20.640Z,59.58
2022-09-21T06:21:48.176Z,59.11
2022-09-21T06:24:15.425Z,57.33
2022-09-21T06:26:43.111Z,55.19
2022-09-21T06:29:10.370Z,56.79
2022-09-21T06:31:37.653Z,57.48
2022-09-21T06:34:05.190Z,58.57
2022-09-21T06:36:32.516Z,58.70
2022-09-21T06:38:59.717Z,57.30
2022-09-21T06:41:27.186Z,61.30
2022-09-21T06:43:55.600Z,59.51
2022-09-21T06:46:22.859Z,61.93
2022-09-21T06:48:50.571Z,60.98
2022-09-21T06:51:17.812Z,60.46
2022-09-21T06:53:45.138Z,61.38
2022-09-21T06:56:12.617Z,61.07
2022-09-21T06:58:39.874Z,62.44
2022-09-21T07:01:07.750Z,61.99
2022-09-21T07:03:35.467Z,60.18
2022-09-21T07:06:02.678Z,61.97
2022-09-21T07:11:17.436Z,61.32
2022-09-21T07:13:45.517Z,61.03
2022-09-21T07:16:13.303Z,60.58
2022-09-21T07:18:44.357Z,60.58
2022-09-21T07:21:12.044Z,60.93
2022-09-21T07:23:39.256Z,61.65
2022-09-21T07:26:08.192Z,59.62
2022-09-21T07:28:35.790Z,58.71
2022-09-21T07:31:10.795Z,59.28
2022-09-21T07:33:38.258Z,58.04
2022-09-21T07:36:10.366Z,57.51
2022-09-21T07:38:39.561Z,59.43
2022-09-21T07:41:07.278Z,59.53
2022-09-21T07:43:34.766Z,59.43
2022-09-21T07:46:02.369Z,58.70
2022-09-21T07:48:30.400Z,60.74
2022-09-21T07:51:07.648Z,61.44
2022-09-21T07:53:38.994Z,60.59
2022-09-21T07:56:07.136Z,57.94
2022-09-21T07:58:54.070Z,56.49
2022-09-21T08:01:21.398Z,57.06
2022-09-21T08:03:52.324Z,56.62
2022-09-21T08:06:19.633Z,55.44
2022-09-21T08:08:48.048Z,55.64
2022-09-21T08:11:16.417Z,56.11
2022-09-21T08:13:43.860Z,57.16
2022-09-21T08:16:11.387Z,56.66
2022-09-21T08:18:39.751Z,56.38
2022-09-21T08:21:07.421Z,56.38
2022-09-21T08:23:34.874Z,54.74
2022-09-21T08:26:03.258Z,55.29
2022-09-21T08:28:31.262Z,55.87
2022-09-21T08:31:02.246Z,56.96
2022-09-21T08:33:30.015Z,55.41
2022-09-21T08:35:58.327Z,54.74
2022-09-21T08:38:25.946Z,56.33
2022-09-21T08:40:53.550Z,54.80
2022-09-21T08:43:29.901Z,54.68
2022-09-21T08:45:57.452Z,53.76
2022-09-21T08:48:29.970Z,55.59
2022-09-21T08:50:59.830Z,53.86
2022-09-21T08:53:33.773Z,55.78
2022-09-21T08:56:02.858Z,55.86
2022-09-21T08:58:31.197Z,55.12
2022-09-21T09:01:17.482Z,54.29
2022-09-21T09:03:52.017Z,54.12
2022-09-21T09:06:48.801Z,52.99
2022-09-21T09:09:39.701Z,53.09
2022-09-21T09:12:16.654Z,55.33
2022-09-21T09:14:56.126Z,55.01
2022-09-21T09:17:26.882Z,55.10
2022-09-21T09:19:56.129Z,54.22
2022-09-21T09:22:34.479Z,55.70
2022-09-21T09:25:03.868Z,54.25
2022-09-21T09:27:35.345Z,52.67
2022-09-21T09:30:05.235Z,52.68
2022-09-21T09:32:45.486Z,52.36
2022-09-21T09:35:39.137Z,51.69
2022-09-21T09:38:19.753Z,51.74
2022-09-21T09:41:06.845Z,51.51
2022-09-21T09:43:40.206Z,51.50
2022-09-21T09:46:11.195Z,51.45
2022-09-21T09:48:58.920Z,52.48
2022-09-21T09:51:26.999Z,52.56
2022-09-21T09:53:54.293Z,52.32
2022-09-21T09:56:21.522Z,50.93
2022-09-21T09:58:57.473Z,51.99
2022-09-21T10:01:36.968Z,50.42
2022-09-21T10:04:05.937Z,49.58
2022-09-21T10:06:33.440Z,49.41
2022-09-21T10:09:00.899Z,49.54
2022-09-21T10:11:35.707Z,49.41
2022-09-21T10:14:14.740Z,48.83
2022-09-21T10:16:42.356Z,47.63
2022-09-21T10:19:16.882Z,48.19
2022-09-21T10:21:48.805Z,48.66
2022-09-21T10:24:19.133Z,49.72
2022-09-21T10:26:49.384Z,48.23
2022-09-21T10:29:22.702Z,48.78
2022-09-21T10:32:14.845Z,47.86
2022-09-21T10:35:00.089Z,48.15
2022-09-21T10:37:29.246Z,46.80
2022-09-21T10:39:57.241Z,49.64
2022-09-21T10:42:24.462Z,48.76
2022-09-21T10:45:05.324Z,46.57
2022-09-21T10:47:34.601Z,47.37
2022-09-21T10:50:02.857Z,46.16
2022-09-21T10:52:37.631Z,46.79
2022-09-21T10:55:05.756Z,46.65
2022-09-21T10:57:33.153Z,45.84
2022-09-21T11:00:35.705Z,45.63
2022-09-21T11:03:05.459Z,45.32
2022-09-21T11:05:38.912Z,45.61
2022-09-21T11:08:09.854Z,45.85
2022-09-21T11:10:43.352Z,46.39
2022-09-21T11:13:17.875Z,45.71
2022-09-21T11:15:52.780Z,46.05
2022-09-21T11:18:22.452Z,45.10
2022-09-21T11:20:51.443Z,44.95
2022-09-21T11:23:18.659Z,43.59
2022-09-21T11:26:04.768Z,42.64
2022-09-21T11:28:40.877Z,43.29
2022-09-21T11:31:23.696Z,43.15
2022-09-21T11:34:10.501Z,42.04
2022-09-21T11:36:38.294Z,40.25
2022-09-21T11:39:32.276Z,39.96
2022-09-21T11:42:00.707Z,40.62
2022-09-21T11:44:28.058Z,40.59
2022-09-21T11:46:59.300Z,40.55
2022-09-21T11:49:29.999Z,40.48
2022-09-21T11:52:16.143Z,41.54
2022-09-21T11:55:02.245Z,41.92
2022-09-21T11:57:38.742Z,42.07
2022-09-21T12:00:11.565Z,41.25
2022-09-21T12:05:33.962Z,42.64
2022-09-21T12:08:04.591Z,43.42
2022-09-21T12:10:50.403Z,43.85
2022-09-21T12:13:20.851Z,44.06
2022-09-21T12:15:55.541Z,44.06
2022-09-21T12:18:27.473Z,44.22
2022-09-21T12:21:14.927Z,42.67
2022-09-21T12:23:43.990Z,42.46
2022-09-21T12:26:12.226Z,41.49
2022-09-21T12:28:40.819Z,42.39
2022-09-21T12:31:29.197Z,42.47
2022-09-21T12:33:57.956Z,41.83
2022-09-21T12:36:25.429Z,41.69
2022-09-21T12:38:59.230Z,42.08
2022-09-21T12:41:30.004Z,41.66
2022-09-21T12:44:00.669Z,40.71
2022-09-21T12:46:28.193Z,42.46
2022-09-21T12:48:55.440Z,42.00
2022-09-21T12:51:29.357Z,41.06
2022-09-21T12:53:58.385Z,42.10
2022-09-21T12:56:35.702Z,43.87
2022-09-21T12:59:09.609Z,42.63
2022-09-21T13:01:47.549Z,42.08
2022-09-21T13:04:28.165Z,41.64
2022-09-21T13:07:02.073Z,40.07
2022-09-21T13:09:29.575Z,39.28
2022-09-21T13:11:57.812Z,38.90
2022-09-21T13:14:25.407Z,40.01
2022-09-21T13:16:53.866Z,39.59
2022-09-21T13:19:21.943Z,38.82
2022-09-21T13:22:08.519Z,39.26
2022-09-21T13:24:36.001Z,40.15
2022-09-21T13:27:07.581Z,39.52
2022-09-21T13:29:36.112Z,39.21
2022-09-21T13:32:04.442Z,39.88
2022-09-21T13:34:36.144Z,39.73
2022-09-21T13:37:17.439Z,39.81
2022-09-21T13:39:45.192Z,39.83
2022-09-21T13:42:31.205Z,41.39
2022-09-21T13:44:58.952Z,41.42
2022-09-21T13:47:30.736Z,41.10
2022-09-21T13:50:00.701Z,40.77
2022-09-21T13:52:30.108Z,39.98
2022-09-21T13:54:58.684Z,40.98
2022-09-21T13:57:27.096Z,41.81
2022-09-21T14:00:21.095Z,41.53
2022-09-21T14:02:55.408Z,39.50
2022-09-21T14:05:23.483Z,40.71
2022-09-21T14:07:55.339Z,40.60
2022-09-21T14:10:22.585Z,41.06
2022-09-21T14:12:49.778Z,40.21
2022-09-21T14:15:19.418Z,40.08
2022-09-21T14:18:07.834Z,41.31
2022-09-21T14:20:39.513Z,41.12
2022-09-21T14:23:20.039Z,40.82
2022-09-21T14:25:51.775Z,39.91
2022-09-21T14:28:26.608Z,40.35
2022-09-21T14:30:58.404Z,40.16
2022-09-21T14:33:30.417Z,40.46
2022-09-21T14:35:57.970Z,39.66
2022-09-21T14:38:28.424Z,39.16
2022-09-21T14:41:03.306Z,40.28
2022-09-21T14:43:33.865Z,40.43
2022-09-21T14:46:01.407Z,41.23
2022-09-21T14:48:30.538Z,40.69
2022-09-21T14:51:18.543Z,41.15
2022-09-21T14:54:00.987Z,40.88
2022-09-21T14:56:30.728Z,40.97
2022-09-21T14:59:04.283Z,40.18
2022-09-21T15:01:31.825Z,40.29
2022-09-21T15:04:03.150Z,40.23
2022-09-21T15:06:52.014Z,40.35
2022-09-21T15:09:57.470Z,39.71
2022-09-21T15:12:27.605Z,40.01
2022-09-21T15:15:21.571Z,39.99
2022-09-21T15:17:59.254Z,40.40
2022-09-21T15:20:28.185Z,39.90
2022-09-21T15:22:55.962Z,39.63
2022-09-21T15:25:23.438Z,39.57
2022-09-21T15:27:51.767Z,40.43
2022-09-21T15:30:24.386Z,38.66
2022-09-21T15:32:53.204Z,39.12
2022-09-21T15:35:21.318Z,38.88
2022-09-21T15:37:48.658Z,39.72
2022-09-21T15:40:17.770Z,39.84
2022-09-21T15:43:01.096Z,39.97
2022-09-21T15:45:28.963Z,40.41
2022-09-21T15:47:58.077Z,41.14
2022-09-21T15:50:25.326Z,41.43
2022-09-21T15:52:54.844Z,41.63
2022-09-21T15:55:22.166Z,41.31
2022-09-21T15:57:50.207Z,40.92
2022-09-21T16:00:18.949Z,42.50
2022-09-21T16:02:51.407Z,41.56
2022-09-21T16:05:19.881Z,41.61
2022-09-21T16:07:47.707Z,41.59
2022-09-21T16:10:29.935Z,41.55
2022-09-21T16:13:01.153Z,42.14
2022-09-21T16:15:30.103Z,41.75
2022-09-21T16:18:01.940Z,41.45
2022-09-21T16:20:44.284Z,42.00
2022-09-21T16:23:13.967Z,42.96
2022-09-21T16:25:43.023Z,41.94
2022-09-21T16:28:16.394Z,41.60
2022-09-21T16:30:44.817Z,41.82
2022-09-21T16:33:30.986Z,42.28
2022-09-21T16:35:58.862Z,42.69
2022-09-21T16:38:26.402Z,41.59
2022-09-21T16:40:54.789Z,42.83
2022-09-21T16:43:24.268Z,44.17
2022-09-21T16:45:51.515Z,43.82
2022-09-21T16:48:18.946Z,43.30
2022-09-21T16:50:46.865Z,44.21
2022-09-21T16:53:14.139Z,43.58
2022-09-21T16:55:42.906Z,43.41
2022-09-21T16:58:10.907Z,43.72
2022-09-21T17:00:39.569Z,44.54
2022-09-21T17:03:06.897Z,43.28
2022-09-21T17:05:34.354Z,43.43
2022-09-21T17:08:01.670Z,43.00
2022-09-21T17:10:30.981Z,43.70
2022-09-21T17:12:59.263Z,43.76
2022-09-21T17:15:28.531Z,44.18
2022-09-21T17:17:58.123Z,44.16
2022-09-21T17:20:35.910Z,45.53
2022-09-21T17:23:03.546Z,44.63
2022-09-21T17:25:32.813Z,45.22
2022-09-21T17:28:00.544Z,44.49
2022-09-21T17:30:29.135Z,45.50
2022-09-21T17:32:58.308Z,44.73
2022-09-21T17:35:40.046Z,44.73
2022-09-21T17:38:12.601Z,44.16
2022-09-21T17:40:42.946Z,44.59
2022-09-21T17:43:13.725Z,43.85
2022-09-21T17:45:42.386Z,44.03
2022-09-21T17:48:13.179Z,46.25
2022-09-21T17:50:42.055Z,44.86
2022-09-21T17:53:28.444Z,44.86
2022-09-21T17:56:01.100Z,45.71
2022-09-21T17:58:38.339Z,45.65
2022-09-21T18:01:26.313Z,45.94
2022-09-21T18:03:57.587Z,45.75
2022-09-21T18:06:25.930Z,45.55
2022-09-21T18:08:54.238Z,46.67
2022-09-21T18:11:27.783Z,47.25
2022-09-21T18:14:01.095Z,46.38
2022-09-21T18:16:28.664Z,47.25
2022-09-21T18:19:02.555Z,46.42
2022-09-21T18:21:31.882Z,46.32
2022-09-21T18:24:02.192Z,46.38
2022-09-21T18:26:33.165Z,45.61
2022-09-21T18:29:12.557Z,45.48
2022-09-21T18:32:08.225Z,45.64
2022-09-21T18:34:55.234Z,45.25
2022-09-21T18:37:35.849Z,44.84
2022-09-21T18:40:09.167Z,44.76
2022-09-21T18:42:42.404Z,45.86
2022-09-21T18:45:17.365Z,45.06
2022-09-21T18:47:46.230Z,45.56
2022-09-21T18:50:16.848Z,46.19
2022-09-21T18:52:50.151Z,46.11
2022-09-21T18:55:23.681Z,45.70
2022-09-21T18:57:51.617Z,45.09
2022-09-21T19:00:19.661Z,45.76
2022-09-21T19:03:12.232Z,45.85
2022-09-21T19:05:34.745Z,45.57
2022-09-21T19:08:10.935Z,45.62
2022-09-21T19:10:39.405Z,46.32
2022-09-21T19:13:13.115Z,45.97
2022-09-21T19:15:59.888Z,46.02
2022-09-21T19:18:34.970Z,46.13
2022-09-21T19:21:08.878Z,46.56
2022-09-21T19:23:51.768Z,46.21
2022-09-21T19:26:31.346Z,47.16
2022-09-21T19:29:17.522Z,46.67
2022-09-21T19:31:45.141Z,47.56
2022-09-21T19:34:14.771Z,47.38
2022-09-21T19:36:42.512Z,47.35
2022-09-21T19:39:10.875Z,47.60
2022-09-21T19:41:41.650Z,48.24
2022-09-21T19:44:29.791Z,47.79
2022-09-21T19:47:06.561Z,47.30
2022-09-21T19:49:41.417Z,47.90
2022-09-21T19:52:08.959Z,47.53
2022-09-21T19:54:55.004Z,48.29
2022-09-21T19:57:41.376Z,48.28
2022-09-21T20:00:09.934Z,47.56
2022-09-21T20:02:59.236Z,48.27
2022-09-21T20:05:34.358Z,47.96
2022-09-21T20:08:10.986Z,47.78
2022-09-21T20:10:42.248Z,47.86
2022-09-21T20:13:21.860Z,48.97
2022-09-21T20:15:54.069Z,50.68
2022-09-21T20:18:21.579Z,49.51
2022-09-21T20:20:48.849Z,49.60
2022-09-21T20:23:16.199Z,50.60
2022-09-21T20:25:54.102Z,49.29
2022-09-21T20:28:22.044Z,49.25
2022-09-21T20:30:50.349Z,49.24
2022-09-21T20:33:21.385Z,48.63
2022-09-21T20:35:48.960Z,48.51
2022-09-21T20:38:17.963Z,48.68
2022-09-21T20:40:45.468Z,48.52
2022-09-21T20:43:14.200Z,48.52
2022-09-21T20:45:48.090Z,48.57
2022-09-21T20:48:15.748Z,48.86
2022-09-21T20:50:44.518Z,48.62
2022-09-21T20:53:12.570Z,48.92
2022-09-21T20:55:41.052Z,50.42
2022-09-21T20:58:11.035Z,50.04
2022-09-21T21:00:38.304Z,49.96
2022-09-21T21:03:05.580Z,50.98
2022-09-21T21:05:33.141Z,51.30
2022-09-21T21:08:00.326Z,51.48
2022-09-21T21:10:27.649Z,53.27
2022-09-21T21:12:55.382Z,54.16
2022-09-21T21:15:22.650Z,51.33
2022-09-21T21:17:49.872Z,51.37
2022-09-21T21:20:17.406Z,50.63
2022-09-21T21:22:45.118Z,51.26
2022-09-21T21:25:12.330Z,51.04
2022-09-21T21:27:39.909Z,51.93
2022-09-21T21:30:07.841Z,51.45
2022-09-21T21:32:35.402Z,51.06
2022-09-21T21:35:03.014Z,51.18
2022-09-21T21:37:30.312Z,52.64
2022-09-21T21:39:57.726Z,51.26
2022-09-21T21:42:25.549Z,52.28
2022-09-21T21:44:52.755Z,52.20
2022-09-21T21:47:39.750Z,52.09
2022-09-21T21:50:07.715Z,51.94
2022-09-21T21:52:34.902Z,52.95
2022-09-21T21:55:02.546Z,51.47
2022-09-21T21:57:30.227Z,53.48
2022-09-21T21:59:57.509Z,52.52
2022-09-21T22:02:24.842Z,54.56
2022-09-21T22:04:52.729Z,53.04
2022-09-21T22:07:19.978Z,53.10
2022-09-21T22:09:47.639Z,52.40
2022-09-21T22:12:15.687Z,52.48
2022-09-21T22:14:46.198Z,52.10
2022-09-21T22:17:13.506Z,52.98
2022-09-21T22:19:41.063Z,53.04
2022-09-21T22:22:08.936Z,52.59
2022-09-21T22:24:36.176Z,52.77
2022-09-21T22:27:03.809Z,53.70
2022-09-21T22:29:31.028Z,54.00
2022-09-21T22:31:58.364Z,54.27
2022-09-21T22:34:26.025Z,53.57
2022-09-21T22:36:53.873Z,54.63
2022-09-21T22:39:21.371Z,55.18
2022-09-21T22:41:48.899Z,53.61
2022-09-21T22:44:16.085Z,53.02
2022-09-21T22:46:43.326Z,53.66
2022-09-21T22:49:10.815Z,53.37
2022-09-21T22:51:38.196Z,52.79
2022-09-21T22:54:05.585Z,51.87
2022-09-21T22:56:33.351Z,51.56
2022-09-21T22:59:01.567Z,51.60
2022-09-21T23:01:36.257Z,51.21
2022-09-21T23:04:05.138Z,51.25
2022-09-21T23:06:33.623Z,51.17
2022-09-21T23:09:02.101Z,51.18
2022-09-21T23:11:31.778Z,51.09
2022-09-21T23:13:59.135Z,51.80
2022-09-21T23:16:27.389Z,51.85
2022-09-21T23:18:55.312Z,52.37
2022-09-21T23:21:23.866Z,52.41
2022-09-21T23:23:54.877Z,55.42
2022-09-21T23:26:26.157Z,54.23
2022-09-21T23:28:54.366Z,53.43
2022-09-21T23:31:21.978Z,53.07
2022-09-21T23:33:50.060Z,53.14
2022-09-21T23:36:18.188Z,53.48
2022-09-21T23:38:46.514Z,53.03
2022-09-21T23:41:13.672Z,53.59
2022-09-21T23:43:41.468Z,53.71
2022-09-21T23:46:09.555Z,53.57
2022-09-21T23:48:36.838Z,53.04
2022-09-21T23:51:04.272Z,53.14
2022-09-21T23:53:32.029Z,53.96
2022-09-21T23:55:59.310Z,52.53
2022-09-21T23:58:26.925Z,52.58
